createdAt,value
2023-04-02T00:02:22.447Z,21.90
2023-04-02T00:05:30.272Z,20.50
2023-04-02T00:08:00.598Z,22.20
2023-04-02T00:10:32.531Z,23.00
2023-04-02T00:13:26.210Z,24.20
2023-04-02T00:15:57.846Z,24.40
2023-04-02T00:18:26.746Z,25.00
2023-04-02T00:21:05.591Z,24.80
2023-04-02T00:23:37.086Z,23.90
2023-04-02T00:26:18.601Z,23.70
2023-04-02T00:28:46.194Z,24.40
2023-04-02T00:31:14.273Z,22.80
2023-04-02T00:33:42.693Z,22.80
2023-04-02T00:36:10.438Z,21.60
2023-04-02T00:38:38.475Z,23.00
2023-04-02T00:41:07.284Z,22.10
2023-04-02T00:43:38.272Z,22.40
2023-04-02T00:46:14.217Z,22.70
2023-04-02T00:48:54.969Z,22.80
2023-04-02T00:51:27.032Z,22.90
2023-04-02T00:53:56.729Z,22.60
2023-04-02T00:56:32.293Z,22.90
2023-04-02T00:59:00.452Z,22.40
2023-04-02T01:01:36.692Z,20.90
2023-04-02T01:04:05.758Z,19.30
2023-04-02T01:06:37.242Z,19.60
2023-04-02T01:09:16.007Z,21.70
2023-04-02T01:11:48.123Z,21.80
2023-04-02T01:14:41.868Z,22.80
2023-04-02T01:17:20.007Z,22.00
2023-04-02T01:20:12.297Z,21.30
2023-04-02T01:23:08.072Z,20.70
2023-04-02T01:25:38.718Z,17.20
2023-04-02T01:28:19.864Z,18.70
2023-04-02T01:30:52.129Z,17.50
2023-04-02T01:33:22.148Z,20.60
2023-04-02T01:35:56.813Z,18.80
2023-04-02T01:38:29.261Z,20.20
2023-04-02T01:41:02.588Z,20.20
2023-04-02T01:43:35.022Z,20.40
2023-04-02T01:46:24.585Z,21.90
2023-04-02T01:48:54.484Z,22.10
2023-04-02T01:51:28.362Z,22.80
2023-04-02T01:54:00.599Z,22.40
2023-04-02T01:56:30.428Z,23.00
2023-04-02T01:58:58.942Z,22.80
2023-04-02T02:01:33.463Z,22.40
2023-04-02T02:04:02.075Z,22.90
2023-04-02T02:06:29.890Z,21.50
2023-04-02T02:09:05.618Z,22.40
2023-04-02T02:11:36.022Z,21.20
2023-04-02T02:14:14.612Z,22.40
2023-04-02T02:16:42.935Z,21.50
2023-04-02T02:19:20.914Z,23.50
2023-04-02T02:21:54.236Z,22.20
2023-04-02T02:24:32.963Z,23.20
2023-04-02T02:27:26.027Z,22.90
2023-04-02T02:30:06.190Z,22.70
2023-04-02T02:32:34.710Z,22.90
2023-04-02T02:35:16.909Z,21.50
2023-04-02T02:37:48.373Z,21.90
2023-04-02T02:40:21.185Z,23.40
2023-04-02T02:42:51.478Z,21.10
2023-04-02T02:45:24.045Z,22.50
2023-04-02T02:47:53.377Z,21.30
2023-04-02T02:50:26.978Z,21.20
2023-04-02T02:52:58.928Z,20.00
2023-04-02T02:55:32.724Z,20.20
2023-04-02T02:58:23.513Z,18.70
2023-04-02T03:01:03.978Z,19.30
2023-04-02T03:03:34.386Z,20.00
2023-04-02T03:06:07.180Z,20.30
2023-04-02T03:08:40.328Z,20.80
2023-04-02T03:11:19.738Z,24.80
2023-04-02T03:13:49.731Z,22.40
2023-04-02T03:16:38.709Z,23.10
2023-04-02T03:19:14.553Z,23.90
2023-04-02T03:22:13.815Z,25.60
2023-04-02T03:25:06.877Z,19.80
2023-04-02T03:27:38.098Z,18.60
2023-04-02T03:30:17.992Z,20.30
2023-04-02T03:32:46.922Z,18.70
2023-04-02T03:35:36.955Z,18.00
2023-04-02T03:38:12.646Z,17.90
2023-04-02T03:40:54.045Z,18.00
2023-04-02T03:43:24.376Z,18.40
2023-04-02T03:45:57.512Z,19.80
2023-04-02T03:48:32.955Z,20.60
2023-04-02T03:51:11.809Z,20.50
2023-04-02T03:53:40.060Z,19.70
2023-04-02T03:56:11.611Z,19.70
2023-04-02T03:58:46.944Z,19.50
2023-04-02T04:01:34.506Z,19.40
2023-04-02T04:04:14.528Z,19.10
2023-04-02T04:06:43.992Z,18.30
2023-04-02T04:09:28.955Z,18.20
2023-04-02T04:12:10.148Z,17.40
2023-04-02T04:14:42.738Z,17.20
2023-04-02T04:17:16.696Z,17.40
2023-04-02T04:19:54.931Z,16.60
2023-04-02T04:22:31.830Z,16.80
2023-04-02T04:25:22.429Z,16.80
2023-04-02T04:28:05.701Z,17.20
2023-04-02T04:30:45.751Z,16.50
2023-04-02T04:33:26.506Z,16.10
2023-04-02T04:35:59.576Z,15.20
2023-04-02T04:38:39.081Z,14.60
2023-04-02T04:41:13.748Z,13.80
2023-04-02T04:43:52.909Z,14.20
2023-04-02T04:46:33.471Z,14.10
2023-04-02T04:49:25.826Z,14.30
2023-04-02T04:52:15.407Z,14.40
2023-04-02T04:54:46.024Z,14.10
2023-04-02T04:57:38.197Z,14.60
2023-04-02T05:00:20.656Z,12.40
2023-04-02T05:03:06.871Z,12.50
2023-04-02T05:05:38.764Z,12.40
2023-04-02T05:08:27.185Z,13.40
2023-04-02T05:10:58.745Z,13.70
2023-04-02T05:13:41.454Z,12.90
2023-04-02T05:16:31.735Z,11.50
2023-04-02T05:19:14.648Z,11.80
2023-04-02T05:21:51.469Z,11.50
2023-04-02T05:24:37.555Z,12.30
2023-04-02T05:27:18.533Z,13.10
2023-04-02T05:29:51.305Z,13.10
2023-04-02T05:32:25.950Z,14.10
2023-04-02T05:34:55.187Z,14.40
2023-04-02T05:37:25.076Z,14.70
2023-04-02T05:39:58.598Z,16.60
2023-04-02T05:42:31.346Z,16.80
2023-04-02T05:45:18.868Z,16.80
2023-04-02T05:47:48.890Z,15.90
2023-04-02T05:50:27.192Z,17.60
2023-04-02T05:53:00.717Z,18.80
2023-04-02T05:55:43.389Z,17.90
2023-04-02T05:58:35.461Z,16.00
2023-04-02T06:01:25.234Z,17.30
2023-04-02T06:04:03.385Z,16.50
2023-04-02T06:06:41.899Z,16.80
2023-04-02T06:09:42.205Z,17.60
2023-04-02T06:12:22.514Z,16.20
2023-04-02T06:14:50.540Z,16.70
2023-04-02T06:17:20.087Z,17.60
2023-04-02T06:19:49.020Z,18.20
2023-04-02T06:22:33.134Z,20.00
2023-04-02T06:25:06.042Z,20.80
2023-04-02T06:27:41.776Z,23.20
2023-04-02T06:30:17.717Z,24.60
2023-04-02T06:32:47.254Z,27.30
2023-04-02T06:35:17.892Z,28.50
2023-04-02T06:37:50.098Z,29.10
2023-04-02T06:40:29.117Z,29.90
2023-04-02T06:43:01.044Z,29.20
2023-04-02T06:45:39.905Z,29.00
2023-04-02T06:48:18.231Z,29.00
2023-04-02T06:50:54.850Z,26.80
2023-04-02T06:53:24.283Z,25.70
2023-04-02T06:56:15.295Z,26.10
2023-04-02T06:58:42.912Z,25.90
2023-04-02T07:01:16.812Z,24.90
2023-04-02T07:03:45.352Z,23.90
2023-04-02T07:06:22.568Z,24.00
2023-04-02T07:08:52.704Z,25.10
2023-04-02T07:11:22.304Z,25.20
2023-04-02T07:13:52.141Z,25.00
2023-04-02T07:16:22.971Z,23.30
2023-04-02T07:18:51.528Z,23.60
2023-04-02T07:21:19.544Z,23.70
2023-04-02T07:23:47.319Z,25.20
2023-04-02T07:26:20.007Z,24.60
2023-04-02T07:28:47.903Z,24.50
2023-04-02T07:31:20.776Z,23.60
2023-04-02T07:33:48.548Z,22.20
2023-04-02T07:36:19.196Z,22.00
2023-04-02T07:38:47.345Z,22.40
2023-04-02T07:41:16.244Z,21.90
2023-04-02T07:43:44.352Z,22.20
2023-04-02T07:46:14.196Z,21.70
2023-04-02T07:48:42.070Z,21.90
2023-04-02T07:51:21.770Z,21.50
2023-04-02T07:53:51.062Z,21.40
2023-04-02T07:56:21.075Z,23.00
2023-04-02T07:58:49.227Z,21.50
2023-04-02T08:01:24.007Z,19.80
2023-04-02T08:03:56.748Z,19.50
2023-04-02T08:06:25.253Z,18.60
2023-04-02T08:08:53.205Z,19.70
2023-04-02T08:11:20.966Z,19.80
2023-04-02T08:13:48.606Z,20.10
2023-04-02T08:16:16.913Z,19.60
2023-04-02T08:18:47.510Z,19.50
2023-04-02T08:21:16.530Z,18.40
2023-04-02T08:23:44.960Z,17.40
2023-04-02T08:26:18.592Z,16.50
2023-04-02T08:28:46.216Z,17.50
2023-04-02T08:31:13.865Z,15.90
2023-04-02T08:33:41.532Z,15.20
2023-04-02T08:36:17.196Z,15.80
2023-04-02T08:38:45.481Z,14.10
2023-04-02T08:41:37.307Z,13.80
2023-04-02T08:44:18.256Z,13.80
2023-04-02T08:46:50.854Z,15.50
2023-04-02T08:49:42.542Z,16.40
2023-04-02T08:52:21.421Z,15.30
2023-04-02T08:54:49.747Z,15.60
2023-04-02T08:57:36.709Z,14.10
2023-04-02T09:00:10.669Z,12.10
2023-04-02T09:02:43.160Z,12.70
2023-04-02T09:05:17.891Z,14.20
2023-04-02T09:07:47.550Z,11.70
2023-04-02T09:10:19.045Z,11.00
2023-04-02T09:12:51.668Z,9.50
2023-04-02T09:15:30.897Z,10.00
2023-04-02T09:18:06.241Z,12.30
2023-04-02T09:20:33.926Z,14.30
2023-04-02T09:23:01.702Z,15.30
2023-04-02T09:25:34.180Z,14.20
2023-04-02T09:28:04.457Z,14.10
2023-04-02T09:30:32.158Z,14.00
2023-04-02T09:33:02.772Z,13.70
2023-04-02T09:35:32.722Z,14.00
2023-04-02T09:38:22.421Z,13.50
2023-04-02T09:40:54.363Z,12.60
2023-04-02T09:43:24.489Z,11.70
2023-04-02T09:46:24.028Z,10.90
2023-04-02T09:48:58.476Z,11.50
2023-04-02T09:51:36.623Z,10.60
2023-04-02T09:54:04.283Z,11.60
2023-04-02T09:56:34.462Z,11.00
2023-04-02T09:59:04.900Z,10.50
2023-04-02T10:01:38.812Z,12.10
2023-04-02T10:04:47.168Z,11.80
2023-04-02T10:07:41.458Z,12.00
2023-04-02T10:10:26.302Z,11.70
2023-04-02T10:12:59.676Z,12.90
2023-04-02T10:15:33.933Z,13.30
2023-04-02T10:18:08.172Z,12.90
2023-04-02T10:20:48.682Z,9.00
2023-04-02T10:23:19.836Z,9.10
2023-04-02T10:26:32.924Z,8.10
2023-04-02T10:29:27.379Z,9.30
2023-04-02T10:32:06.721Z,6.60
2023-04-02T10:34:43.351Z,6.40
2023-04-02T10:37:48.451Z,6.00
2023-04-02T10:40:37.380Z,5.60
2023-04-02T10:43:39.263Z,6.10
2023-04-02T10:46:12.479Z,6.00
2023-04-02T10:48:58.097Z,5.10
2023-04-02T10:51:57.055Z,5.10
2023-04-02T10:54:46.903Z,4.80
2023-04-02T10:57:24.302Z,4.20
2023-04-02T11:00:17.898Z,4.50
2023-04-02T11:03:08.197Z,5.90
2023-04-02T11:05:46.411Z,5.60
2023-04-02T11:08:24.288Z,5.10
2023-04-02T11:11:00.165Z,4.80
2023-04-02T11:14:05.019Z,4.50
2023-04-02T11:16:33.324Z,4.50
2023-04-02T11:19:16.458Z,4.60
2023-04-02T11:21:57.332Z,4.20
2023-04-02T11:24:37.311Z,4.60
2023-04-02T11:27:11.209Z,4.70
2023-04-02T11:29:46.091Z,4.40
2023-04-02T11:32:21.674Z,4.60
2023-04-02T11:35:03.114Z,5.10
2023-04-02T11:37:37.211Z,4.30
2023-04-02T11:40:10.863Z,4.10
2023-04-02T11:42:43.119Z,4.30
2023-04-02T11:45:20.877Z,4.70
2023-04-02T11:48:01.219Z,4.10
2023-04-02T11:50:44.762Z,4.50
2023-04-02T11:53:13.057Z,6.30
2023-04-02T11:55:42.206Z,5.90
2023-04-02T11:58:28.882Z,6.70
2023-04-02T12:01:05.378Z,7.10
2023-04-02T12:03:44.961Z,15.20
2023-04-02T12:06:25.680Z,6.80
2023-04-02T12:09:07.995Z,6.40
2023-04-02T12:11:38.555Z,6.90
2023-04-02T12:14:42.639Z,6.60
2023-04-02T12:17:33.040Z,6.60
2023-04-02T12:20:09.419Z,8.20
2023-04-02T12:22:47.820Z,8.00
2023-04-02T12:25:18.413Z,7.50
2023-04-02T12:27:46.553Z,7.90
2023-04-02T12:30:19.139Z,7.90
2023-04-02T12:32:47.999Z,9.10
2023-04-02T12:35:42.707Z,9.40
2023-04-02T12:38:22.214Z,9.40
2023-04-02T12:40:58.357Z,9.00
2023-04-02T12:43:30.961Z,8.10
2023-04-02T12:46:01.332Z,8.00
2023-04-02T12:48:29.743Z,8.60
2023-04-02T12:50:57.978Z,8.70
2023-04-02T12:53:36.366Z,8.70
2023-04-02T12:56:05.570Z,8.50
2023-04-02T12:58:41.088Z,8.90
2023-04-02T13:01:27.619Z,8.50
2023-04-02T13:04:07.306Z,7.90
2023-04-02T13:06:35.835Z,8.70
2023-04-02T13:09:06.645Z,9.50
2023-04-02T13:11:40.840Z,9.70
2023-04-02T13:14:17.706Z,10.60
2023-04-02T13:16:45.732Z,10.30
2023-04-02T13:19:29.114Z,11.50
2023-04-02T13:21:58.948Z,10.50
2023-04-02T13:24:29.032Z,11.10
2023-04-02T13:26:59.120Z,10.90
2023-04-02T13:29:34.973Z,8.80
2023-04-02T13:32:11.787Z,9.00
2023-04-02T13:34:39.425Z,10.50
2023-04-02T13:37:07.032Z,8.60
2023-04-02T13:39:34.721Z,7.40
2023-04-02T13:42:03.794Z,6.40
2023-04-02T13:44:33.233Z,7.10
2023-04-02T13:47:01.068Z,8.10
2023-04-02T13:49:28.900Z,8.00
2023-04-02T13:51:58.722Z,8.10
2023-04-02T13:54:50.941Z,8.00
2023-04-02T13:57:18.950Z,8.60
2023-04-02T13:59:46.740Z,8.20
2023-04-02T14:02:19.146Z,9.60
2023-04-02T14:04:51.104Z,10.50
2023-04-02T14:07:39.248Z,10.00
2023-04-02T14:10:28.673Z,9.90
2023-04-02T14:13:20.548Z,10.80
2023-04-02T14:16:07.217Z,9.80
2023-04-02T14:19:08.541Z,9.20
2023-04-02T14:21:40.844Z,8.00
2023-04-02T14:24:30.254Z,8.50
2023-04-02T14:27:04.570Z,8.40
2023-04-02T14:29:48.179Z,8.80
2023-04-02T14:32:38.762Z,8.70
2023-04-02T14:35:29.712Z,9.40
2023-04-02T14:38:14.012Z,10.80
2023-04-02T14:40:49.277Z,8.80
2023-04-02T14:43:22.866Z,10.30
2023-04-02T14:45:59.749Z,8.70
2023-04-02T14:48:50.281Z,7.70
2023-04-02T14:51:45.241Z,7.00
2023-04-02T14:54:30.714Z,6.80
2023-04-02T14:57:01.625Z,6.40
2023-04-02T14:59:37.572Z,6.70
2023-04-02T15:02:45.002Z,7.10
2023-04-02T15:05:20.396Z,6.20
2023-04-02T15:07:59.633Z,6.00
2023-04-02T15:11:04.968Z,5.40
2023-04-02T15:13:41.320Z,5.70
2023-04-02T15:16:20.860Z,6.60
2023-04-02T15:18:53.399Z,7.70
2023-04-02T15:21:25.558Z,7.50
2023-04-02T15:24:04.526Z,6.80
2023-04-02T15:26:59.946Z,7.50
2023-04-02T15:29:30.582Z,8.60
2023-04-02T15:32:05.691Z,8.10
2023-04-02T15:34:46.713Z,8.50
2023-04-02T15:37:33.569Z,9.10
2023-04-02T15:40:26.848Z,9.60
2023-04-02T15:43:10.470Z,8.50
2023-04-02T15:46:02.975Z,8.90
2023-04-02T15:48:49.345Z,10.20
2023-04-02T15:51:37.198Z,9.30
2023-04-02T15:54:13.394Z,10.90
2023-04-02T15:57:05.961Z,10.80
2023-04-02T15:59:52.360Z,12.30
2023-04-02T16:03:06.730Z,12.60
2023-04-02T16:06:16.986Z,12.80
2023-04-02T16:08:57.400Z,12.20
2023-04-02T16:11:27.266Z,13.00
2023-04-02T16:14:03.982Z,13.50
2023-04-02T16:16:34.145Z,14.20
2023-04-02T16:19:32.199Z,15.30
2023-04-02T16:22:27.053Z,15.90
2023-04-02T16:25:16.574Z,15.30
2023-04-02T16:27:50.245Z,16.50
2023-04-02T16:30:29.999Z,16.70
2023-04-02T16:33:03.428Z,16.30
2023-04-02T16:35:49.341Z,17.50
2023-04-02T16:38:55.237Z,17.40
2023-04-02T16:41:48.380Z,18.90
2023-04-02T16:44:31.044Z,18.80
2023-04-02T16:47:35.109Z,19.50
2023-04-02T16:50:12.818Z,18.90
2023-04-02T16:52:51.854Z,20.40
2023-04-02T16:55:41.418Z,21.00
2023-04-02T16:58:22.768Z,22.00
2023-04-02T17:00:56.237Z,23.00
2023-04-02T17:03:43.185Z,33.50
2023-04-02T17:06:36.291Z,23.00
2023-04-02T17:09:23.893Z,23.20
2023-04-02T17:11:56.228Z,23.90
2023-04-02T17:14:30.089Z,24.50
2023-04-02T17:17:03.553Z,26.20
2023-04-02T17:19:32.200Z,27.50
2023-04-02T17:22:02.817Z,26.10
2023-04-02T17:24:40.623Z,27.00
2023-04-02T17:27:17.208Z,28.50
2023-04-02T17:29:49.297Z,28.20
2023-04-02T17:32:21.872Z,28.30
2023-04-02T17:34:49.669Z,28.00
2023-04-02T17:37:27.629Z,27.10
2023-04-02T17:40:07.440Z,26.90
2023-04-02T17:42:48.034Z,26.50
2023-04-02T17:45:34.608Z,27.80
2023-04-02T17:48:22.023Z,27.30
2023-04-02T17:50:56.182Z,25.50
2023-04-02T17:53:39.167Z,25.40
2023-04-02T17:56:40.424Z,26.10
2023-04-02T17:59:17.782Z,24.80
2023-04-02T18:02:14.345Z,25.40
2023-04-02T18:05:11.646Z,27.30
2023-04-02T18:08:00.958Z,25.20
2023-04-02T18:10:47.377Z,23.50
2023-04-02T18:13:14.947Z,23.00
2023-04-02T18:15:50.880Z,21.60
2023-04-02T18:18:56.873Z,20.60
2023-04-02T18:21:49.686Z,19.80
2023-04-02T18:24:25.001Z,19.40
2023-04-02T18:26:59.150Z,18.50
2023-04-02T18:29:51.864Z,18.90
2023-04-02T18:32:38.280Z,18.50
2023-04-02T18:35:16.971Z,19.40
2023-04-02T18:38:24.125Z,19.10
2023-04-02T18:41:40.730Z,19.30
2023-04-02T18:44:49.233Z,20.40
2023-04-02T18:48:02.157Z,21.30
2023-04-02T18:50:37.488Z,20.50
2023-04-02T18:53:13.099Z,20.40
2023-04-02T18:55:58.516Z,21.90
2023-04-02T18:58:40.988Z,20.10
2023-04-02T19:01:10.034Z,18.60
2023-04-02T19:03:42.144Z,18.30
2023-04-02T19:06:14.818Z,17.90
2023-04-02T19:08:48.377Z,16.60
2023-04-02T19:11:28.392Z,16.80
2023-04-02T19:14:00.894Z,16.80
2023-04-02T19:16:48.460Z,14.60
2023-04-02T19:19:27.591Z,14.70
2023-04-02T19:22:33.444Z,15.40
2023-04-02T19:25:11.435Z,15.00
2023-04-02T19:28:30.509Z,17.60
2023-04-02T19:31:19.554Z,17.50
2023-04-02T19:33:55.037Z,16.50
2023-04-02T19:36:58.770Z,15.40
2023-04-02T19:39:51.516Z,15.10
2023-04-02T19:42:31.253Z,15.00
2023-04-02T19:44:59.180Z,14.40
2023-04-02T19:47:26.990Z,13.80
2023-04-02T19:49:55.733Z,12.80
2023-04-02T19:52:23.341Z,12.80
2023-04-02T19:54:51.056Z,12.20
2023-04-02T19:57:18.796Z,13.50
2023-04-02T19:59:46.548Z,12.90
2023-04-02T20:02:14.186Z,13.00
2023-04-02T20:04:42.530Z,13.00
2023-04-02T20:07:10.417Z,12.50
2023-04-02T20:09:38.054Z,12.00
2023-04-02T20:12:06.056Z,24.80
2023-04-02T20:14:33.699Z,14.00
2023-04-02T20:17:01.688Z,18.10
2023-04-02T20:19:29.597Z,15.20
2023-04-02T20:21:57.299Z,14.40
2023-04-02T20:24:24.931Z,14.20
2023-04-02T20:26:52.528Z,12.20
2023-04-02T20:29:20.576Z,12.30
2023-04-02T20:31:48.177Z,11.10
2023-04-02T20:34:16.262Z,10.60
2023-04-02T20:36:45.648Z,10.90
2023-04-02T20:39:19.158Z,11.70
2023-04-02T20:41:47.618Z,11.90
2023-04-02T20:44:15.272Z,11.60
2023-04-02T20:46:42.941Z,10.30
2023-04-02T20:49:10.909Z,10.80
2023-04-02T20:51:38.549Z,10.20
2023-04-02T20:54:06.455Z,10.30
2023-04-02T20:56:34.084Z,9.40
2023-04-02T20:59:01.788Z,8.70
2023-04-02T21:01:30.365Z,8.90
2023-04-02T21:04:00.326Z,8.70
2023-04-02T21:06:30.240Z,8.00
2023-04-02T21:08:58.348Z,8.30
2023-04-02T21:11:26.252Z,7.10
2023-04-02T21:13:54.351Z,7.40
2023-04-02T21:16:24.967Z,7.70
2023-04-02T21:18:53.199Z,6.40
2023-04-02T21:21:22.713Z,6.80
2023-04-02T21:24:07.206Z,7.30
2023-04-02T21:26:40.933Z,6.90
2023-04-02T21:29:12.330Z,7.80
2023-04-02T21:31:40.731Z,6.00
2023-04-02T21:34:09.439Z,5.60
2023-04-02T21:36:40.130Z,5.60
2023-04-02T21:39:19.291Z,5.70
2023-04-02T21:41:51.400Z,5.10
2023-04-02T21:44:21.377Z,5.70
2023-04-02T21:46:51.670Z,5.80
2023-04-02T21:49:22.702Z,5.30
2023-04-02T21:51:54.125Z,5.30
2023-04-02T21:54:21.907Z,5.60
2023-04-02T21:56:49.706Z,4.80
2023-04-02T21:59:18.182Z,5.40
2023-04-02T22:01:48.689Z,5.20
2023-04-02T22:04:19.623Z,5.00
2023-04-02T22:06:47.852Z,5.60
2023-04-02T22:09:18.149Z,5.40
2023-04-02T22:11:51.397Z,5.30
2023-04-02T22:14:19.009Z,5.10
2023-04-02T22:16:46.746Z,5.10
2023-04-02T22:19:16.647Z,4.60
2023-04-02T22:21:44.512Z,4.80
2023-04-02T22:24:18.821Z,5.10
2023-04-02T22:26:46.853Z,4.70
2023-04-02T22:29:14.850Z,4.70
2023-04-02T22:31:43.284Z,4.60
2023-04-02T22:34:11.062Z,4.10
2023-04-02T22:36:38.702Z,5.80
2023-04-02T22:39:09.764Z,4.70
2023-04-02T22:41:38.467Z,4.30
2023-04-02T22:44:06.708Z,5.10
2023-04-02T22:46:34.867Z,4.80
2023-04-02T22:49:03.182Z,4.70
2023-04-02T22:51:31.035Z,5.60
2023-04-02T22:53:58.616Z,5.00
2023-04-02T22:56:29.691Z,5.60
2023-04-02T22:58:57.384Z,4.10
2023-04-02T23:01:35.677Z,5.00
2023-04-02T23:04:05.088Z,4.60
2023-04-02T23:06:32.892Z,4.80
2023-04-02T23:09:00.516Z,5.20
2023-04-02T23:11:28.503Z,6.00
2023-04-02T23:13:57.506Z,5.00
2023-04-02T23:16:27.250Z,5.20
2023-04-02T23:18:56.050Z,4.90
2023-04-02T23:21:24.668Z,4.60
2023-04-02T23:23:52.530Z,4.80
2023-04-02T23:26:27.100Z,4.40
2023-04-02T23:28:55.231Z,4.50
2023-04-02T23:31:23.649Z,4.70
2023-04-02T23:33:52.140Z,3.80
2023-04-02T23:36:23.190Z,5.10
2023-04-02T23:38:54.879Z,3.80
2023-04-02T23:41:24.333Z,5.00
2023-04-02T23:43:52.211Z,5.40
2023-04-02T23:46:20.257Z,4.50
2023-04-02T23:48:48.687Z,3.60
2023-04-02T23:51:16.790Z,4.30
2023-04-02T23:53:44.915Z,4.10
2023-04-02T23:56:12.592Z,4.30
2023-04-02T23:58:40.260Z,5.20
